Terminal Aerodrome Forecast
Issued by NWS

Home | Current Version | Previous Version | Text Only | Print | Product List | Glossary On
Versions: 1 2 3 4 5 6 7 8 9 10 11 12 13 14 15 16 17 18 19 20 21 22 23 24 25 26 27 28 29 30 31 32 33 34
000
FTAK31 PANC 240532
TAFADL
TAF
PADL 240532Z 2406/2506 35014KT 3SM -SHSN OVC012
      TEMPO 2406/2410 1 1/2SM -SN BR BLSN
     FM241300 35010KT 5SM -SHSN SCT012 OVC022
     FM242100 02010KT P6SM VCSH BKN025
     FM250000 VRB05KT P6SM VCSH SCT020 OVC035
      AMD LTD TO CLD VIS AND WIND 2407/2416=

USA.gov is the U.S. government's official web portal to all federal, state and local government web resources and services.